sensor_id;sensor_type;location;lat;lon;timestamp;P1;durP1;ratioP1;P2;durP2;ratioP2
14890;SDS011;7537;48.014;11.590;2022-11-15T00:04:03;6.14;;;2.47;;
14890;SDS011;7537;48.014;11.590;2022-11-15T00:09:32;2.59;;;2.09;;
14890;SDS011;7537;48.014;11.590;2022-11-15T00:14:59;2.30;;;2.37;;
14890;SDS011;7537;48.014;11.590;2022-11-15T00:20:26;2.80;;;2.66;;
14890;SDS011;7537;48.014;11.590;2022-11-15T00:25:56;2.45;;;2.44;;
14890;SDS011;7537;48.014;11.590;2022-11-15T00:31:24;2.29;;;2.16;;
14890;SDS011;7537;48.014;11.590;2022-11-15T00:36:51;2.66;;;2.75;;
14890;SDS011;7537;48.014;11.590;2022-11-15T00:42:20;3.47;;;2.36;;
14890;SDS011;7537;48.014;11.590;2022-11-15T00:47:47;2.62;;;2.23;;
14890;SDS011;7537;48.014;11.590;2022-11-15T00:53:15;3.04;;;2.50;;
14890;SDS011;7537;48.014;11.590;2022-11-15T00:58:42;2.47;;;2.57;;
14890;SDS011;7537;48.014;11.590;2022-11-15T01:04:13;2.21;;;2.37;;
14890;SDS011;7537;48.014;11.590;2022-11-15T01:09:40;3.37;;;2.39;;
14890;SDS011;7537;48.014;11.590;2022-11-15T01:15:09;3.59;;;2.71;;
14890;SDS011;7537;48.014;11.590;2022-11-15T01:20:39;2.51;;;2.40;;
14890;SDS011;7537;48.014;11.590;2022-11-15T01:26:10;2.46;;;2.54;;
14890;SDS011;7537;48.014;11.590;2022-11-15T01:31:38;3.91;;;2.93;;
14890;SDS011;7537;48.014;11.590;2022-11-15T01:37:05;5.31;;;2.46;;
14890;SDS011;7537;48.014;11.590;2022-11-15T01:42:33;5.01;;;2.88;;
14890;SDS011;7537;48.014;11.590;2022-11-15T01:48:01;2.67;;;2.54;;
14890;SDS011;7537;48.014;11.590;2022-11-15T01:53:29;10.38;;;8.30;;
14890;SDS011;7537;48.014;11.590;2022-11-15T01:58:57;5.49;;;5.75;;
14890;SDS011;7537;48.014;11.590;2022-11-15T02:04:35;3.54;;;3.73;;
14890;SDS011;7537;48.014;11.590;2022-11-15T02:10:04;3.07;;;2.62;;
14890;SDS011;7537;48.014;11.590;2022-11-15T02:15:36;2.28;;;2.29;;
14890;SDS011;7537;48.014;11.590;2022-11-15T02:21:18;1.79;;;1.83;;
14890;SDS011;7537;48.014;11.590;2022-11-15T02:27:00;2.11;;;1.93;;
14890;SDS011;7537;48.014;11.590;2022-11-15T02:32:33;1.99;;;2.07;;
14890;SDS011;7537;48.014;11.590;2022-11-15T02:38:04;1.72;;;1.82;;
14890;SDS011;7537;48.014;11.590;2022-11-15T02:43:36;3.56;;;2.72;;
14890;SDS011;7537;48.014;11.590;2022-11-15T02:49:05;2.17;;;2.29;;
14890;SDS011;7537;48.014;11.590;2022-11-15T02:54:35;2.51;;;2.55;;
14890;SDS011;7537;48.014;11.590;2022-11-15T03:00:04;1.97;;;2.11;;
14890;SDS011;7537;48.014;11.590;2022-11-15T03:05:37;7.22;;;2.67;;
14890;SDS011;7537;48.014;11.590;2022-11-15T03:11:07;1.87;;;1.99;;
14890;SDS011;7537;48.014;11.590;2022-11-15T03:16:36;2.43;;;2.53;;
14890;SDS011;7537;48.014;11.590;2022-11-15T03:22:04;2.33;;;2.44;;
14890;SDS011;7537;48.014;11.590;2022-11-15T03:27:33;9.04;;;6.78;;
14890;SDS011;7537;48.014;11.590;2022-11-15T03:33:01;11.52;;;6.54;;
14890;SDS011;7537;48.014;11.590;2022-11-15T03:38:29;3.79;;;3.69;;
14890;SDS011;7537;48.014;11.590;2022-11-15T03:43:59;1.93;;;2.03;;
14890;SDS011;7537;48.014;11.590;2022-11-15T03:49:32;1.81;;;1.67;;
14890;SDS011;7537;48.014;11.590;2022-11-15T03:55:00;22.49;;;11.01;;
14890;SDS011;7537;48.014;11.590;2022-11-15T04:00:28;12.16;;;7.70;;
14890;SDS011;7537;48.014;11.590;2022-11-15T04:05:59;5.51;;;4.09;;
14890;SDS011;7537;48.014;11.590;2022-11-15T04:11:26;2.64;;;2.49;;
14890;SDS011;7537;48.014;11.590;2022-11-15T04:16:53;3.01;;;2.94;;
14890;SDS011;7537;48.014;11.590;2022-11-15T04:22:21;2.04;;;2.13;;
14890;SDS011;7537;48.014;11.590;2022-11-15T04:27:48;2.37;;;2.46;;
14890;SDS011;7537;48.014;11.590;2022-11-15T04:33:16;2.49;;;2.56;;
14890;SDS011;7537;48.014;11.590;2022-11-15T04:38:43;2.16;;;2.22;;
14890;SDS011;7537;48.014;11.590;2022-11-15T04:44:11;3.17;;;2.61;;
14890;SDS011;7537;48.014;11.590;2022-11-15T04:49:38;1.27;;;1.39;;
14890;SDS011;7537;48.014;11.590;2022-11-15T04:55:07;1.95;;;2.06;;
14890;SDS011;7537;48.014;11.590;2022-11-15T05:00:34;1.84;;;1.88;;
14890;SDS011;7537;48.014;11.590;2022-11-15T05:06:06;1.57;;;1.60;;
14890;SDS011;7537;48.014;11.590;2022-11-15T05:11:33;1.64;;;1.66;;
14890;SDS011;7537;48.014;11.590;2022-11-15T05:17:01;2.69;;;2.13;;
14890;SDS011;7537;48.014;11.590;2022-11-15T05:22:28;15.97;;;7.11;;
14890;SDS011;7537;48.014;11.590;2022-11-15T05:27:57;37.74;;;12.05;;
14890;SDS011;7537;48.014;11.590;2022-11-15T05:33:25;19.26;;;9.04;;
14890;SDS011;7537;48.014;11.590;2022-11-15T05:38:53;58.72;;;20.58;;
14890;SDS011;7537;48.014;11.590;2022-11-15T05:44:21;39.37;;;14.94;;
14890;SDS011;7537;48.014;11.590;2022-11-15T05:49:49;19.43;;;7.04;;
14890;SDS011;7537;48.014;11.590;2022-11-15T05:55:18;1.74;;;2.08;;
14890;SDS011;7537;48.014;11.590;2022-11-15T06:00:45;4.36;;;3.80;;
14890;SDS011;7537;48.014;11.590;2022-11-15T06:06:21;4.77;;;3.44;;
14890;SDS011;7537;48.014;11.590;2022-11-15T06:11:49;3.71;;;2.99;;
14890;SDS011;7537;48.014;11.590;2022-11-15T06:17:16;7.36;;;4.65;;
14890;SDS011;7537;48.014;11.590;2022-11-15T06:22:43;18.18;;;8.96;;
14890;SDS011;7537;48.014;11.590;2022-11-15T06:28:11;27.29;;;9.81;;
14890;SDS011;7537;48.014;11.590;2022-11-15T06:33:38;15.65;;;8.21;;
14890;SDS011;7537;48.014;11.590;2022-11-15T06:39:05;10.88;;;6.89;;
14890;SDS011;7537;48.014;11.590;2022-11-15T06:44:34;7.27;;;5.90;;
14890;SDS011;7537;48.014;11.590;2022-11-15T06:50:03;7.17;;;5.56;;
14890;SDS011;7537;48.014;11.590;2022-11-15T06:55:30;7.02;;;5.41;;
14890;SDS011;7537;48.014;11.590;2022-11-15T07:01:01;7.86;;;4.61;;
14890;SDS011;7537;48.014;11.590;2022-11-15T07:06:33;6.69;;;2.66;;
14890;SDS011;7537;48.014;11.590;2022-11-15T07:12:00;7.31;;;3.91;;
14890;SDS011;7537;48.014;11.590;2022-11-15T07:17:27;7.93;;;5.52;;
14890;SDS011;7537;48.014;11.590;2022-11-15T07:23:00;4.84;;;4.06;;
14890;SDS011;7537;48.014;11.590;2022-11-15T07:28:27;4.60;;;1.76;;
14890;SDS011;7537;48.014;11.590;2022-11-15T07:33:55;3.24;;;1.96;;
14890;SDS011;7537;48.014;11.590;2022-11-15T07:39:22;8.84;;;2.79;;
14890;SDS011;7537;48.014;11.590;2022-11-15T07:44:50;6.31;;;1.27;;
14890;SDS011;7537;48.014;11.590;2022-11-15T07:50:17;1.96;;;1.34;;
14890;SDS011;7537;48.014;11.590;2022-11-15T07:55:46;1.17;;;1.28;;
14890;SDS011;7537;48.014;11.590;2022-11-15T08:01:15;4.50;;;1.93;;
14890;SDS011;7537;48.014;11.590;2022-11-15T08:06:47;3.69;;;1.52;;
14890;SDS011;7537;48.014;11.590;2022-11-15T08:12:14;3.92;;;2.04;;
14890;SDS011;7537;48.014;11.590;2022-11-15T08:17:42;2.36;;;1.95;;
14890;SDS011;7537;48.014;11.590;2022-11-15T08:23:10;2.28;;;1.78;;
14890;SDS011;7537;48.014;11.590;2022-11-15T08:28:39;4.00;;;1.54;;
14890;SDS011;7537;48.014;11.590;2022-11-15T08:34:07;3.00;;;2.37;;
14890;SDS011;7537;48.014;11.590;2022-11-15T08:39:34;2.86;;;1.79;;
14890;SDS011;7537;48.014;11.590;2022-11-15T08:45:02;3.86;;;2.41;;
14890;SDS011;7537;48.014;11.590;2022-11-15T08:50:30;8.10;;;2.27;;
14890;SDS011;7537;48.014;11.590;2022-11-15T08:55:59;13.94;;;2.33;;
14890;SDS011;7537;48.014;11.590;2022-11-15T09:01:27;8.57;;;2.12;;
14890;SDS011;7537;48.014;11.590;2022-11-15T09:06:58;2.16;;;2.11;;
14890;SDS011;7537;48.014;11.590;2022-11-15T09:12:26;3.18;;;1.92;;
14890;SDS011;7537;48.014;11.590;2022-11-15T09:17:53;4.34;;;1.56;;
14890;SDS011;7537;48.014;11.590;2022-11-15T09:23:21;2.86;;;2.23;;
14890;SDS011;7537;48.014;11.590;2022-11-15T09:28:48;3.57;;;2.02;;
14890;SDS011;7537;48.014;11.590;2022-11-15T09:34:17;4.19;;;2.20;;
14890;SDS011;7537;48.014;11.590;2022-11-15T09:39:45;1.39;;;1.51;;
14890;SDS011;7537;48.014;11.590;2022-11-15T09:45:15;1.83;;;1.64;;
14890;SDS011;7537;48.014;11.590;2022-11-15T09:50:44;5.07;;;3.38;;
14890;SDS011;7537;48.014;11.590;2022-11-15T09:56:14;3.91;;;3.67;;
14890;SDS011;7537;48.014;11.590;2022-11-15T10:01:43;3.46;;;2.93;;
14890;SDS011;7537;48.014;11.590;2022-11-15T10:07:18;4.06;;;3.39;;
14890;SDS011;7537;48.014;11.590;2022-11-15T10:12:48;3.01;;;1.52;;
14890;SDS011;7537;48.014;11.590;2022-11-15T10:18:16;4.23;;;3.41;;
14890;SDS011;7537;48.014;11.590;2022-11-15T10:23:45;1.46;;;1.67;;
14890;SDS011;7537;48.014;11.590;2022-11-15T10:29:18;6.47;;;3.99;;
14890;SDS011;7537;48.014;11.590;2022-11-15T10:34:46;3.19;;;2.53;;
14890;SDS011;7537;48.014;11.590;2022-11-15T10:40:19;0.98;;;1.16;;
14890;SDS011;7537;48.014;11.590;2022-11-15T10:45:47;1.85;;;1.62;;
14890;SDS011;7537;48.014;11.590;2022-11-15T10:51:19;2.09;;;2.12;;
14890;SDS011;7537;48.014;11.590;2022-11-15T10:56:49;3.27;;;1.94;;
14890;SDS011;7537;48.014;11.590;2022-11-15T11:02:30;2.86;;;2.53;;
14890;SDS011;7537;48.014;11.590;2022-11-15T11:08:03;1.79;;;1.81;;
14890;SDS011;7537;48.014;11.590;2022-11-15T11:13:32;12.60;;;6.87;;
14890;SDS011;7537;48.014;11.590;2022-11-15T11:19:02;13.32;;;8.91;;
14890;SDS011;7537;48.014;11.590;2022-11-15T11:24:32;1.73;;;2.23;;
14890;SDS011;7537;48.014;11.590;2022-11-15T11:30:03;2.69;;;2.68;;
14890;SDS011;7537;48.014;11.590;2022-11-15T11:35:32;3.24;;;1.95;;
14890;SDS011;7537;48.014;11.590;2022-11-15T11:41:04;2.33;;;1.92;;
14890;SDS011;7537;48.014;11.590;2022-11-15T11:46:49;2.33;;;2.29;;
14890;SDS011;7537;48.014;11.590;2022-11-15T11:52:19;1.58;;;1.57;;
14890;SDS011;7537;48.014;11.590;2022-11-15T11:57:49;1.77;;;1.84;;
14890;SDS011;7537;48.014;11.590;2022-11-15T12:03:19;3.13;;;3.16;;
14890;SDS011;7537;48.014;11.590;2022-11-15T12:08:58;2.12;;;1.91;;
14890;SDS011;7537;48.014;11.590;2022-11-15T12:14:29;1.78;;;1.87;;
14890;SDS011;7537;48.014;11.590;2022-11-15T12:20:01;1.69;;;1.66;;
14890;SDS011;7537;48.014;11.590;2022-11-15T12:25:30;3.27;;;2.46;;
14890;SDS011;7537;48.014;11.590;2022-11-15T12:30:59;2.19;;;2.09;;
14890;SDS011;7537;48.014;11.590;2022-11-15T12:36:33;2.01;;;2.03;;
14890;SDS011;7537;48.014;11.590;2022-11-15T12:47:47;1.91;;;2.02;;
14890;SDS011;7537;48.014;11.590;2022-11-15T12:53:29;1.69;;;1.78;;
14890;SDS011;7537;48.014;11.590;2022-11-15T12:58:58;2.18;;;2.32;;
14890;SDS011;7537;48.014;11.590;2022-11-15T13:04:26;7.37;;;2.64;;
14890;SDS011;7537;48.014;11.590;2022-11-15T13:09:57;1.40;;;1.52;;
14890;SDS011;7537;48.014;11.590;2022-11-15T13:15:31;1.50;;;1.61;;
14890;SDS011;7537;48.014;11.590;2022-11-15T13:21:01;1.34;;;1.41;;
14890;SDS011;7537;48.014;11.590;2022-11-15T13:26:30;1.24;;;1.31;;
14890;SDS011;7537;48.014;11.590;2022-11-15T13:31:58;1.26;;;1.33;;
14890;SDS011;7537;48.014;11.590;2022-11-15T13:37:31;1.35;;;1.36;;
14890;SDS011;7537;48.014;11.590;2022-11-15T13:42:58;1.33;;;1.40;;
14890;SDS011;7537;48.014;11.590;2022-11-15T13:48:26;1.64;;;1.72;;
14890;SDS011;7537;48.014;11.590;2022-11-15T13:53:57;1.51;;;1.59;;
14890;SDS011;7537;48.014;11.590;2022-11-15T13:59:27;1.94;;;1.90;;
14890;SDS011;7537;48.014;11.590;2022-11-15T14:04:55;1.78;;;1.80;;
14890;SDS011;7537;48.014;11.590;2022-11-15T14:10:29;2.53;;;2.50;;
14890;SDS011;7537;48.014;11.590;2022-11-15T14:16:11;1.92;;;2.06;;
14890;SDS011;7537;48.014;11.590;2022-11-15T14:27:26;1.96;;;2.02;;
14890;SDS011;7537;48.014;11.590;2022-11-15T14:32:55;2.14;;;2.07;;
14890;SDS011;7537;48.014;11.590;2022-11-15T14:38:22;3.20;;;1.98;;
14890;SDS011;7537;48.014;11.590;2022-11-15T14:43:50;6.17;;;1.69;;
14890;SDS011;7537;48.014;11.590;2022-11-15T14:49:18;4.33;;;2.58;;
14890;SDS011;7537;48.014;11.590;2022-11-15T14:54:45;4.76;;;2.19;;
14890;SDS011;7537;48.014;11.590;2022-11-15T15:00:14;4.20;;;2.44;;
14890;SDS011;7537;48.014;11.590;2022-11-15T15:05:43;7.85;;;4.51;;
14890;SDS011;7537;48.014;11.590;2022-11-15T15:11:14;8.05;;;2.64;;
14890;SDS011;7537;48.014;11.590;2022-11-15T15:16:43;10.48;;;3.63;;
14890;SDS011;7537;48.014;11.590;2022-11-15T15:22:11;8.05;;;3.72;;
14890;SDS011;7537;48.014;11.590;2022-11-15T15:27:40;14.22;;;3.08;;
14890;SDS011;7537;48.014;11.590;2022-11-15T15:33:07;6.62;;;3.33;;
14890;SDS011;7537;48.014;11.590;2022-11-15T15:38:36;3.93;;;2.51;;
14890;SDS011;7537;48.014;11.590;2022-11-15T15:44:04;5.96;;;2.19;;
14890;SDS011;7537;48.014;11.590;2022-11-15T15:49:31;5.86;;;2.51;;
14890;SDS011;7537;48.014;11.590;2022-11-15T15:54:58;5.77;;;2.80;;
14890;SDS011;7537;48.014;11.590;2022-11-15T16:00:26;3.55;;;2.34;;
14890;SDS011;7537;48.014;11.590;2022-11-15T16:05:55;2.09;;;1.60;;
14890;SDS011;7537;48.014;11.590;2022-11-15T16:11:27;6.96;;;3.00;;
14890;SDS011;7537;48.014;11.590;2022-11-15T16:16:54;10.35;;;3.25;;
14890;SDS011;7537;48.014;11.590;2022-11-15T16:22:22;5.99;;;3.10;;
14890;SDS011;7537;48.014;11.590;2022-11-15T16:27:49;18.58;;;2.96;;
14890;SDS011;7537;48.014;11.590;2022-11-15T16:33:16;9.41;;;2.80;;
14890;SDS011;7537;48.014;11.590;2022-11-15T16:38:43;12.90;;;3.81;;
14890;SDS011;7537;48.014;11.590;2022-11-15T16:44:12;3.11;;;2.18;;
14890;SDS011;7537;48.014;11.590;2022-11-15T16:49:40;6.07;;;2.62;;
14890;SDS011;7537;48.014;11.590;2022-11-15T16:55:09;3.88;;;2.61;;
14890;SDS011;7537;48.014;11.590;2022-11-15T17:00:38;9.05;;;3.33;;
14890;SDS011;7537;48.014;11.590;2022-11-15T17:06:06;7.63;;;2.63;;
14890;SDS011;7537;48.014;11.590;2022-11-15T17:11:41;3.74;;;2.55;;
14890;SDS011;7537;48.014;11.590;2022-11-15T17:17:10;3.14;;;2.69;;
14890;SDS011;7537;48.014;11.590;2022-11-15T17:22:38;17.73;;;7.56;;
14890;SDS011;7537;48.014;11.590;2022-11-15T17:28:05;7.67;;;3.68;;
14890;SDS011;7537;48.014;11.590;2022-11-15T17:33:33;3.71;;;3.60;;
14890;SDS011;7537;48.014;11.590;2022-11-15T17:39:01;3.09;;;2.55;;
14890;SDS011;7537;48.014;11.590;2022-11-15T17:44:29;3.61;;;2.99;;
14890;SDS011;7537;48.014;11.590;2022-11-15T17:49:57;6.04;;;3.60;;
14890;SDS011;7537;48.014;11.590;2022-11-15T17:55:25;9.21;;;5.52;;
14890;SDS011;7537;48.014;11.590;2022-11-15T18:00:52;5.13;;;4.46;;
14890;SDS011;7537;48.014;11.590;2022-11-15T18:06:20;7.32;;;6.48;;
14890;SDS011;7537;48.014;11.590;2022-11-15T18:11:51;5.88;;;4.04;;
14890;SDS011;7537;48.014;11.590;2022-11-15T18:17:24;2.78;;;2.97;;
14890;SDS011;7537;48.014;11.590;2022-11-15T18:22:53;4.41;;;3.42;;
14890;SDS011;7537;48.014;11.590;2022-11-15T18:28:20;3.00;;;2.86;;
14890;SDS011;7537;48.014;11.590;2022-11-15T18:33:48;5.66;;;2.85;;
14890;SDS011;7537;48.014;11.590;2022-11-15T18:39:16;6.86;;;3.56;;
14890;SDS011;7537;48.014;11.590;2022-11-15T18:44:43;5.20;;;4.17;;
14890;SDS011;7537;48.014;11.590;2022-11-15T18:50:11;3.54;;;3.36;;
14890;SDS011;7537;48.014;11.590;2022-11-15T18:55:39;8.78;;;6.27;;
14890;SDS011;7537;48.014;11.590;2022-11-15T19:01:09;3.79;;;4.07;;
14890;SDS011;7537;48.014;11.590;2022-11-15T19:06:37;8.97;;;4.09;;
14890;SDS011;7537;48.014;11.590;2022-11-15T19:12:08;5.96;;;3.49;;
14890;SDS011;7537;48.014;11.590;2022-11-15T19:17:36;3.97;;;2.67;;
14890;SDS011;7537;48.014;11.590;2022-11-15T19:23:03;2.81;;;2.91;;
14890;SDS011;7537;48.014;11.590;2022-11-15T19:28:31;4.04;;;2.88;;
14890;SDS011;7537;48.014;11.590;2022-11-15T19:34:05;3.71;;;3.03;;
14890;SDS011;7537;48.014;11.590;2022-11-15T19:39:32;2.81;;;2.24;;
14890;SDS011;7537;48.014;11.590;2022-11-15T19:45:00;2.47;;;2.34;;
14890;SDS011;7537;48.014;11.590;2022-11-15T19:50:30;2.40;;;2.50;;
14890;SDS011;7537;48.014;11.590;2022-11-15T19:55:59;3.88;;;2.77;;
14890;SDS011;7537;48.014;11.590;2022-11-15T20:01:30;4.89;;;2.44;;
14890;SDS011;7537;48.014;11.590;2022-11-15T20:06:58;2.98;;;2.67;;
14890;SDS011;7537;48.014;11.590;2022-11-15T20:12:34;2.47;;;2.48;;
14890;SDS011;7537;48.014;11.590;2022-11-15T20:18:01;3.34;;;2.65;;
14890;SDS011;7537;48.014;11.590;2022-11-15T20:23:29;5.58;;;2.99;;
14890;SDS011;7537;48.014;11.590;2022-11-15T20:28:57;4.16;;;4.16;;
14890;SDS011;7537;48.014;11.590;2022-11-15T20:34:26;4.87;;;5.01;;
14890;SDS011;7537;48.014;11.590;2022-11-15T20:39:55;4.07;;;4.16;;
14890;SDS011;7537;48.014;11.590;2022-11-15T20:45:23;3.76;;;3.28;;
14890;SDS011;7537;48.014;11.590;2022-11-15T20:51:01;5.41;;;2.83;;
14890;SDS011;7537;48.014;11.590;2022-11-15T20:56:28;2.44;;;2.44;;
14890;SDS011;7537;48.014;11.590;2022-11-15T21:01:56;2.61;;;2.52;;
14890;SDS011;7537;48.014;11.590;2022-11-15T21:07:23;2.46;;;2.54;;
14890;SDS011;7537;48.014;11.590;2022-11-15T21:12:55;3.89;;;3.32;;
14890;SDS011;7537;48.014;11.590;2022-11-15T21:18:23;4.31;;;2.62;;
14890;SDS011;7537;48.014;11.590;2022-11-15T21:23:50;2.71;;;2.81;;
14890;SDS011;7537;48.014;11.590;2022-11-15T21:29:18;2.93;;;2.28;;
14890;SDS011;7537;48.014;11.590;2022-11-15T21:34:45;3.02;;;2.97;;
14890;SDS011;7537;48.014;11.590;2022-11-15T21:40:12;5.04;;;3.07;;
14890;SDS011;7537;48.014;11.590;2022-11-15T21:45:41;4.38;;;4.36;;
14890;SDS011;7537;48.014;11.590;2022-11-15T21:51:11;2.31;;;2.49;;
14890;SDS011;7537;48.014;11.590;2022-11-15T21:56:38;4.29;;;3.19;;
14890;SDS011;7537;48.014;11.590;2022-11-15T22:02:07;2.73;;;2.75;;
14890;SDS011;7537;48.014;11.590;2022-11-15T22:07:35;3.09;;;3.21;;
14890;SDS011;7537;48.014;11.590;2022-11-15T22:13:10;3.40;;;2.49;;
14890;SDS011;7537;48.014;11.590;2022-11-15T22:18:39;2.75;;;2.83;;
14890;SDS011;7537;48.014;11.590;2022-11-15T22:24:07;3.22;;;2.93;;
14890;SDS011;7537;48.014;11.590;2022-11-15T22:29:34;4.26;;;3.37;;
14890;SDS011;7537;48.014;11.590;2022-11-15T22:35:02;2.39;;;2.46;;
14890;SDS011;7537;48.014;11.590;2022-11-15T22:40:29;4.09;;;2.68;;
14890;SDS011;7537;48.014;11.590;2022-11-15T22:45:57;5.89;;;3.09;;
14890;SDS011;7537;48.014;11.590;2022-11-15T22:51:27;4.33;;;3.49;;
14890;SDS011;7537;48.014;11.590;2022-11-15T22:56:54;5.95;;;3.05;;
14890;SDS011;7537;48.014;11.590;2022-11-15T23:02:22;2.84;;;2.92;;
14890;SDS011;7537;48.014;11.590;2022-11-15T23:07:49;5.87;;;2.93;;
14890;SDS011;7537;48.014;11.590;2022-11-15T23:13:20;2.51;;;2.66;;
14890;SDS011;7537;48.014;11.590;2022-11-15T23:18:47;4.11;;;3.53;;
14890;SDS011;7537;48.014;11.590;2022-11-15T23:24:16;4.23;;;4.31;;
14890;SDS011;7537;48.014;11.590;2022-11-15T23:29:44;2.83;;;3.01;;
14890;SDS011;7537;48.014;11.590;2022-11-15T23:35:13;2.66;;;2.81;;
14890;SDS011;7537;48.014;11.590;2022-11-15T23:40:40;3.49;;;3.16;;
14890;SDS011;7537;48.014;11.590;2022-11-15T23:46:08;3.48;;;3.56;;
14890;SDS011;7537;48.014;11.590;2022-11-15T23:51:35;3.72;;;3.81;;
14890;SDS011;7537;48.014;11.590;2022-11-15T23:57:04;2.99;;;3.08;;
